sensor_id;sensor_type;location;lat;lon;timestamp;pressure;altitude;pressure_sealevel;temperature;humidity
82927;BME280;72788;40.218;44.486;2023-11-21T00:02:14;87551.38;;;9.08;50.75
82927;BME280;72788;40.218;44.486;2023-11-21T00:04:39;87564.00;;;9.00;52.14
82927;BME280;72788;40.218;44.486;2023-11-21T00:07:05;87563.75;;;8.95;51.47
82927;BME280;72788;40.218;44.486;2023-11-21T00:09:32;87579.56;;;8.95;52.13
82927;BME280;72788;40.218;44.486;2023-11-21T00:11:57;87582.38;;;8.88;51.61
82927;BME280;72788;40.218;44.486;2023-11-21T00:14:25;87578.03;;;8.81;52.39
82927;BME280;72788;40.218;44.486;2023-11-21T00:16:50;87585.91;;;8.81;52.62
82927;BME280;72788;40.218;44.486;2023-11-21T00:19:16;87587.72;;;8.84;53.01
82927;BME280;72788;40.218;44.486;2023-11-21T00:21:42;87595.84;;;8.90;52.58
82927;BME280;72788;40.218;44.486;2023-11-21T00:24:10;87593.56;;;8.92;53.18
82927;BME280;72788;40.218;44.486;2023-11-21T00:26:35;87604.91;;;8.89;52.45
82927;BME280;72788;40.218;44.486;2023-11-21T00:29:04;87608.13;;;8.80;52.40
82927;BME280;72788;40.218;44.486;2023-11-21T00:31:33;87609.69;;;8.78;52.95
82927;BME280;72788;40.218;44.486;2023-11-21T00:33:59;87610.50;;;8.75;53.09
82927;BME280;72788;40.218;44.486;2023-11-21T00:36:24;87610.34;;;8.66;53.49
82927;BME280;72788;40.218;44.486;2023-11-21T00:38:51;87616.09;;;8.61;52.93
82927;BME280;72788;40.218;44.486;2023-11-21T00:41:16;87623.41;;;8.53;52.54
82927;BME280;72788;40.218;44.486;2023-11-21T00:43:42;87625.13;;;8.43;52.46
82927;BME280;72788;40.218;44.486;2023-11-21T00:46:09;87621.75;;;8.43;53.49
82927;BME280;72788;40.218;44.486;2023-11-21T00:48:34;87623.03;;;8.54;53.34
82927;BME280;72788;40.218;44.486;2023-11-21T00:51:00;87630.91;;;8.54;53.52
82927;BME280;72788;40.218;44.486;2023-11-21T00:53:26;87636.19;;;8.54;53.30
82927;BME280;72788;40.218;44.486;2023-11-21T00:55:52;87635.00;;;8.55;53.18
82927;BME280;72788;40.218;44.486;2023-11-21T00:58:25;87631.88;;;8.44;53.43
82927;BME280;72788;40.218;44.486;2023-11-21T01:00:51;87613.81;;;8.46;54.09
82927;BME280;72788;40.218;44.486;2023-11-21T01:03:17;87601.69;;;8.49;54.43
82927;BME280;72788;40.218;44.486;2023-11-21T01:05:42;87598.31;;;8.48;54.00
82927;BME280;72788;40.218;44.486;2023-11-21T01:08:08;87605.06;;;8.49;54.35
82927;BME280;72788;40.218;44.486;2023-11-21T01:10:34;87601.69;;;8.49;54.15
82927;BME280;72788;40.218;44.486;2023-11-21T01:13:00;87601.31;;;8.50;54.06
82927;BME280;72788;40.218;44.486;2023-11-21T01:15:25;87607.94;;;8.55;53.66
82927;BME280;72788;40.218;44.486;2023-11-21T01:17:52;87609.25;;;8.63;54.44
82927;BME280;72788;40.218;44.486;2023-11-21T01:20:18;87618.47;;;8.71;54.11
82927;BME280;72788;40.218;44.486;2023-11-21T01:22:43;87616.84;;;8.77;53.60
82927;BME280;72788;40.218;44.486;2023-11-21T01:25:10;87618.25;;;8.82;53.36
82927;BME280;72788;40.218;44.486;2023-11-21T01:27:36;87631.34;;;8.85;53.13
82927;BME280;72788;40.218;44.486;2023-11-21T01:30:05;87628.63;;;8.89;53.33
82927;BME280;72788;40.218;44.486;2023-11-21T01:32:33;87634.84;;;8.95;52.92
82927;BME280;72788;40.218;44.486;2023-11-21T01:34:59;87630.06;;;9.06;53.29
82927;BME280;72788;40.218;44.486;2023-11-21T01:37:25;87628.44;;;9.12;53.28
82927;BME280;72788;40.218;44.486;2023-11-21T01:39:54;87639.28;;;9.14;53.73
82927;BME280;72788;40.218;44.486;2023-11-21T01:42:22;87641.91;;;9.14;53.34
82927;BME280;72788;40.218;44.486;2023-11-21T01:44:48;87632.47;;;9.17;52.81
82927;BME280;72788;40.218;44.486;2023-11-21T01:47:14;87644.06;;;9.19;52.88
82927;BME280;72788;40.218;44.486;2023-11-21T01:49:43;87646.69;;;9.19;53.43
82927;BME280;72788;40.218;44.486;2023-11-21T01:52:11;87651.66;;;9.17;52.81
82927;BME280;72788;40.218;44.486;2023-11-21T01:54:37;87651.50;;;9.08;53.30
82927;BME280;72788;40.218;44.486;2023-11-21T01:57:04;87656.66;;;8.95;53.26
82927;BME280;72788;40.218;44.486;2023-11-21T01:59:36;87653.94;;;8.99;53.88
82927;BME280;72788;40.218;44.486;2023-11-21T02:02:03;87659.78;;;9.07;52.99
82927;BME280;72788;40.218;44.486;2023-11-21T02:04:31;87663.91;;;9.08;52.99
82927;BME280;72788;40.218;44.486;2023-11-21T02:06:57;87667.38;;;9.05;53.60
82927;BME280;72788;40.218;44.486;2023-11-21T02:09:25;87668.03;;;9.09;53.36
82927;BME280;72788;40.218;44.486;2023-11-21T02:11:53;87669.84;;;9.12;52.83
82927;BME280;72788;40.218;44.486;2023-11-21T02:14:20;87671.31;;;9.13;53.31
82927;BME280;72788;40.218;44.486;2023-11-21T02:16:48;87681.88;;;9.13;53.61
82927;BME280;72788;40.218;44.486;2023-11-21T02:19:18;87670.59;;;9.12;53.88
82927;BME280;72788;40.218;44.486;2023-11-21T02:21:51;87679.22;;;9.13;53.71
82927;BME280;72788;40.218;44.486;2023-11-21T02:24:23;87683.31;;;9.14;53.60
82927;BME280;72788;40.218;44.486;2023-11-21T02:26:50;87689.03;;;9.12;52.92
82927;BME280;72788;40.218;44.486;2023-11-21T02:29:19;87689.84;;;9.09;53.14
82927;BME280;72788;40.218;44.486;2023-11-21T02:31:49;87694.69;;;9.11;53.40
82927;BME280;72788;40.218;44.486;2023-11-21T02:34:17;87689.78;;;9.13;53.40
82927;BME280;72788;40.218;44.486;2023-11-21T02:36:46;87695.69;;;9.17;52.81
82927;BME280;72788;40.218;44.486;2023-11-21T02:39:15;87706.31;;;9.13;52.18
82927;BME280;72788;40.218;44.486;2023-11-21T02:41:42;87707.78;;;9.14;52.65
82927;BME280;72788;40.218;44.486;2023-11-21T02:44:08;87709.63;;;9.17;52.62
82927;BME280;72788;40.218;44.486;2023-11-21T02:46:34;87714.72;;;9.24;52.08
82927;BME280;72788;40.218;44.486;2023-11-21T02:49:04;87710.19;;;9.25;51.89
82927;BME280;72788;40.218;44.486;2023-11-21T02:51:32;87715.13;;;9.23;52.70
82927;BME280;72788;40.218;44.486;2023-11-21T02:53:57;87710.09;;;9.12;53.19
82927;BME280;72788;40.218;44.486;2023-11-21T02:56:27;87716.69;;;9.20;51.36
82927;BME280;72788;40.218;44.486;2023-11-21T02:58:55;87712.91;;;9.21;51.92
82927;BME280;72788;40.218;44.486;2023-11-21T03:01:21;87721.63;;;9.34;52.35
82927;BME280;72788;40.218;44.486;2023-11-21T03:03:46;87717.34;;;9.40;52.01
82927;BME280;72788;40.218;44.486;2023-11-21T03:06:13;87725.81;;;9.48;51.19
82927;BME280;72788;40.218;44.486;2023-11-21T03:08:38;87724.81;;;9.42;51.34
82927;BME280;72788;40.218;44.486;2023-11-21T03:11:04;87730.34;;;9.47;51.27
82927;BME280;72788;40.218;44.486;2023-11-21T03:13:29;87731.59;;;9.43;50.56
82927;BME280;72788;40.218;44.486;2023-11-21T03:15:55;87730.19;;;9.38;50.44
82927;BME280;72788;40.218;44.486;2023-11-21T03:18:21;87740.91;;;9.31;50.69
82927;BME280;72788;40.218;44.486;2023-11-21T03:20:52;87742.22;;;9.23;50.68
82927;BME280;72788;40.218;44.486;2023-11-21T03:23:18;87743.88;;;9.17;50.56
82927;BME280;72788;40.218;44.486;2023-11-21T03:25:43;87742.84;;;9.11;51.03
82927;BME280;72788;40.218;44.486;2023-11-21T03:28:09;87746.56;;;9.14;51.45
82927;BME280;72788;40.218;44.486;2023-11-21T03:30:35;87752.16;;;9.16;51.19
82927;BME280;72788;40.218;44.486;2023-11-21T03:33:00;87753.00;;;9.13;50.84
82927;BME280;72788;40.218;44.486;2023-11-21T03:35:26;87756.78;;;9.12;51.66
82927;BME280;72788;40.218;44.486;2023-11-21T03:37:52;87759.50;;;9.08;51.81
82927;BME280;72788;40.218;44.486;2023-11-21T03:40:17;87761.19;;;8.98;51.85
82927;BME280;72788;40.218;44.486;2023-11-21T03:42:43;87772.56;;;8.95;51.79
82927;BME280;72788;40.218;44.486;2023-11-21T03:45:09;87783.75;;;8.99;52.17
82927;BME280;72788;40.218;44.486;2023-11-21T03:47:35;87787.88;;;9.00;51.63
82927;BME280;72788;40.218;44.486;2023-11-21T03:50:00;87793.22;;;8.97;51.94
82927;BME280;72788;40.218;44.486;2023-11-21T03:52:26;87795.03;;;9.00;51.53
82927;BME280;72788;40.218;44.486;2023-11-21T03:54:53;87802.13;;;9.03;51.36
82927;BME280;72788;40.218;44.486;2023-11-21T03:57:20;87811.59;;;9.00;51.41
82927;BME280;72788;40.218;44.486;2023-11-21T03:59:46;87811.38;;;8.91;51.52
82927;BME280;72788;40.218;44.486;2023-11-21T04:02:12;87814.16;;;8.84;51.62
82927;BME280;72788;40.218;44.486;2023-11-21T04:04:37;87814.31;;;8.77;51.76
82927;BME280;72788;40.218;44.486;2023-11-21T04:07:03;87821.03;;;8.78;51.68
82927;BME280;72788;40.218;44.486;2023-11-21T04:09:29;87819.84;;;8.83;52.06
82927;BME280;72788;40.218;44.486;2023-11-21T04:11:55;87816.41;;;8.86;51.65
82927;BME280;72788;40.218;44.486;2023-11-21T04:14:22;87814.84;;;8.88;52.43
82927;BME280;72788;40.218;44.486;2023-11-21T04:16:48;87816.72;;;8.88;52.21
82927;BME280;72788;40.218;44.486;2023-11-21T04:19:14;87821.25;;;8.87;52.48
82927;BME280;72788;40.218;44.486;2023-11-21T04:21:41;87825.69;;;8.90;51.85
82927;BME280;72788;40.218;44.486;2023-11-21T04:24:06;87829.81;;;8.91;51.87
82927;BME280;72788;40.218;44.486;2023-11-21T04:26:32;87831.72;;;8.91;52.00
82927;BME280;72788;40.218;44.486;2023-11-21T04:28:58;87826.13;;;8.89;52.46
82927;BME280;72788;40.218;44.486;2023-11-21T04:31:24;87841.56;;;8.87;51.56
82927;BME280;72788;40.218;44.486;2023-11-21T04:33:49;87833.66;;;8.87;51.80
82927;BME280;72788;40.218;44.486;2023-11-21T04:36:15;87838.25;;;8.83;51.84
82927;BME280;72788;40.218;44.486;2023-11-21T04:38:40;87846.50;;;8.85;51.64
82927;BME280;72788;40.218;44.486;2023-11-21T04:41:07;87849.53;;;8.83;51.23
82927;BME280;72788;40.218;44.486;2023-11-21T04:43:32;87862.31;;;8.85;51.64
82927;BME280;72788;40.218;44.486;2023-11-21T04:45:58;87856.22;;;8.88;52.30
82927;BME280;72788;40.218;44.486;2023-11-21T04:48:24;87862.25;;;8.88;51.38
82927;BME280;72788;40.218;44.486;2023-11-21T04:50:50;87860.34;;;8.89;51.25
82927;BME280;72788;40.218;44.486;2023-11-21T04:53:17;87858.78;;;8.91;51.19
82927;BME280;72788;40.218;44.486;2023-11-21T04:55:42;87852.78;;;8.91;50.96
82927;BME280;72788;40.218;44.486;2023-11-21T04:58:09;87867.84;;;8.90;50.85
82927;BME280;72788;40.218;44.486;2023-11-21T05:00:35;87875.00;;;8.90;51.04
82927;BME280;72788;40.218;44.486;2023-11-21T05:03:04;87869.25;;;8.95;51.36
82927;BME280;72788;40.218;44.486;2023-11-21T05:05:30;87884.19;;;9.01;51.47
82927;BME280;72788;40.218;44.486;2023-11-21T05:07:56;87881.88;;;9.03;50.73
82927;BME280;72788;40.218;44.486;2023-11-21T05:10:22;87883.78;;;9.03;51.17
82927;BME280;72788;40.218;44.486;2023-11-21T05:12:48;87877.34;;;9.04;51.18
82927;BME280;72788;40.218;44.486;2023-11-21T05:15:15;87883.97;;;9.12;50.80
82927;BME280;72788;40.218;44.486;2023-11-21T05:17:43;87892.47;;;9.20;50.85
82927;BME280;72788;40.218;44.486;2023-11-21T05:20:13;87884.56;;;9.20;51.13
82927;BME280;72788;40.218;44.486;2023-11-21T05:22:43;87902.03;;;9.30;50.58
82927;BME280;72788;40.218;44.486;2023-11-21T05:25:08;87890.75;;;9.29;50.76
82927;BME280;72788;40.218;44.486;2023-11-21T05:27:35;87899.19;;;9.40;51.72
82927;BME280;72788;40.218;44.486;2023-11-21T05:30:02;87894.38;;;9.55;51.12
82927;BME280;72788;40.218;44.486;2023-11-21T05:32:30;87887.63;;;9.70;50.40
82927;BME280;72788;40.218;44.486;2023-11-21T05:34:56;87898.50;;;9.72;50.75
82927;BME280;72788;40.218;44.486;2023-11-21T05:37:22;87898.28;;;9.83;50.82
82927;BME280;72788;40.218;44.486;2023-11-21T05:39:49;87893.16;;;9.92;50.83
82927;BME280;72788;40.218;44.486;2023-11-21T05:42:15;87904.38;;;9.96;50.79
82927;BME280;72788;40.218;44.486;2023-11-21T05:44:42;87905.84;;;9.97;50.40
82927;BME280;72788;40.218;44.486;2023-11-21T05:47:08;87911.47;;;9.99;49.92
82927;BME280;72788;40.218;44.486;2023-11-21T05:49:35;87917.34;;;10.07;50.18
82927;BME280;72788;40.218;44.486;2023-11-21T05:52:00;87924.28;;;10.17;49.61
82927;BME280;72788;40.218;44.486;2023-11-21T05:54:26;87926.75;;;10.24;49.62
82927;BME280;72788;40.218;44.486;2023-11-21T05:56:52;87925.13;;;10.30;49.04
82927;BME280;72788;40.218;44.486;2023-11-21T05:59:18;87931.44;;;10.32;49.20
82927;BME280;72788;40.218;44.486;2023-11-21T06:01:43;87935.59;;;10.33;48.38
82927;BME280;72788;40.218;44.486;2023-11-21T06:04:11;87931.78;;;10.34;48.97
82927;BME280;72788;40.218;44.486;2023-11-21T06:06:36;87938.06;;;10.40;48.70
82927;BME280;72788;40.218;44.486;2023-11-21T06:09:02;87935.66;;;10.46;47.59
82927;BME280;72788;40.218;44.486;2023-11-21T06:11:28;87941.44;;;10.41;48.44
82927;BME280;72788;40.218;44.486;2023-11-21T06:13:54;87940.38;;;10.38;48.12
82927;BME280;72788;40.218;44.486;2023-11-21T06:16:20;87946.16;;;10.33;47.90
82927;BME280;72788;40.218;44.486;2023-11-21T06:18:46;87937.56;;;10.29;48.45
82927;BME280;72788;40.218;44.486;2023-11-21T06:21:12;87941.25;;;10.32;48.52
82927;BME280;72788;40.218;44.486;2023-11-21T06:23:39;87944.66;;;10.32;48.14
82927;BME280;72788;40.218;44.486;2023-11-21T06:26:05;87955.47;;;10.38;48.35
82927;BME280;72788;40.218;44.486;2023-11-21T06:28:32;87949.63;;;10.47;48.20
82927;BME280;72788;40.218;44.486;2023-11-21T06:30:57;87960.41;;;10.52;47.58
82927;BME280;72788;40.218;44.486;2023-11-21T06:33:24;87960.22;;;10.59;47.57
82927;BME280;72788;40.218;44.486;2023-11-21T06:35:50;87967.91;;;10.54;45.91
82927;BME280;72788;40.218;44.486;2023-11-21T06:38:16;87965.78;;;10.49;47.25
82927;BME280;72788;40.218;44.486;2023-11-21T06:40:42;87971.06;;;10.49;47.69
82927;BME280;72788;40.218;44.486;2023-11-21T06:43:09;87983.75;;;10.54;47.88
82927;BME280;72788;40.218;44.486;2023-11-21T06:45:35;87987.72;;;10.62;47.00
82927;BME280;72788;40.218;44.486;2023-11-21T06:48:01;87986.88;;;10.65;47.42
82927;BME280;72788;40.218;44.486;2023-11-21T06:50:26;87996.44;;;10.75;48.16
82927;BME280;72788;40.218;44.486;2023-11-21T06:52:52;87988.38;;;10.82;46.12
82927;BME280;72788;40.218;44.486;2023-11-21T06:55:18;87987.78;;;10.74;47.31
82927;BME280;72788;40.218;44.486;2023-11-21T06:57:43;87991.78;;;10.66;47.10
82927;BME280;72788;40.218;44.486;2023-11-21T07:00:10;87989.19;;;10.63;46.34
82927;BME280;72788;40.218;44.486;2023-11-21T07:02:37;87994.25;;;10.57;47.72
82927;BME280;72788;40.218;44.486;2023-11-21T07:05:02;87997.13;;;10.63;47.32
82927;BME280;72788;40.218;44.486;2023-11-21T07:07:28;87991.59;;;10.57;47.39
82927;BME280;72788;40.218;44.486;2023-11-21T07:09:54;88002.81;;;10.45;46.68
82927;BME280;72788;40.218;44.486;2023-11-21T07:12:20;88003.06;;;10.34;47.55
82927;BME280;72788;40.218;44.486;2023-11-21T07:14:49;88009.50;;;10.33;47.80
82927;BME280;72788;40.218;44.486;2023-11-21T07:17:14;88016.09;;;10.41;48.67
82927;BME280;72788;40.218;44.486;2023-11-21T07:19:42;88005.38;;;10.49;48.05
82927;BME280;72788;40.218;44.486;2023-11-21T07:22:08;88017.75;;;10.52;47.76
82927;BME280;72788;40.218;44.486;2023-11-21T07:24:34;88013.28;;;10.49;46.58
82927;BME280;72788;40.218;44.486;2023-11-21T07:27:00;88026.59;;;10.45;47.22
82927;BME280;72788;40.218;44.486;2023-11-21T07:29:26;88022.88;;;10.42;47.49
82927;BME280;72788;40.218;44.486;2023-11-21T07:31:55;88021.31;;;10.45;46.61
82927;BME280;72788;40.218;44.486;2023-11-21T07:34:21;88023.03;;;10.52;47.07
82927;BME280;72788;40.218;44.486;2023-11-21T07:36:46;88029.72;;;10.56;47.26
82927;BME280;72788;40.218;44.486;2023-11-21T07:39:12;88032.75;;;10.55;46.91
82927;BME280;72788;40.218;44.486;2023-11-21T07:41:38;88038.13;;;10.51;45.22
82927;BME280;72788;40.218;44.486;2023-11-21T07:44:10;88041.19;;;10.50;45.42
82927;BME280;72788;40.218;44.486;2023-11-21T07:46:36;88038.38;;;10.57;46.32
82927;BME280;72788;40.218;44.486;2023-11-21T07:49:01;88035.41;;;10.71;45.83
82927;BME280;72788;40.218;44.486;2023-11-21T07:51:27;88029.72;;;10.72;46.46
82927;BME280;72788;40.218;44.486;2023-11-21T07:53:52;88023.34;;;10.86;45.72
82927;BME280;72788;40.218;44.486;2023-11-21T07:56:18;88032.53;;;10.98;46.14
82927;BME280;72788;40.218;44.486;2023-11-21T07:58:44;88030.38;;;10.93;45.36
82927;BME280;72788;40.218;44.486;2023-11-21T08:01:10;88030.88;;;10.87;44.99
82927;BME280;72788;40.218;44.486;2023-11-21T08:03:35;88032.38;;;10.88;44.78
82927;BME280;72788;40.218;44.486;2023-11-21T08:06:01;88030.59;;;10.98;45.80
82927;BME280;72788;40.218;44.486;2023-11-21T08:08:29;88036.22;;;11.00;44.83
82927;BME280;72788;40.218;44.486;2023-11-21T08:10:54;88039.25;;;11.15;44.85
82927;BME280;72788;40.218;44.486;2023-11-21T08:13:24;88046.44;;;11.14;44.55
82927;BME280;72788;40.218;44.486;2023-11-21T08:15:50;88045.88;;;11.07;44.92
82927;BME280;72788;40.218;44.486;2023-11-21T08:18:16;88050.09;;;11.04;42.99
82927;BME280;72788;40.218;44.486;2023-11-21T08:20:43;88048.44;;;10.94;44.42
82927;BME280;72788;40.218;44.486;2023-11-21T08:23:16;88048.78;;;10.96;43.97
82927;BME280;72788;40.218;44.486;2023-11-21T08:25:44;88053.81;;;11.07;44.68
82927;BME280;72788;40.218;44.486;2023-11-21T08:28:10;88038.50;;;11.14;45.15
82927;BME280;72788;40.218;44.486;2023-11-21T08:30:35;88056.59;;;11.32;44.48
82927;BME280;72788;40.218;44.486;2023-11-21T08:33:01;88047.56;;;11.29;43.71
82927;BME280;72788;40.218;44.486;2023-11-21T08:35:28;88056.00;;;11.41;42.83
82927;BME280;72788;40.218;44.486;2023-11-21T08:37:54;88060.28;;;11.34;42.17
82927;BME280;72788;40.218;44.486;2023-11-21T08:40:20;88054.78;;;11.29;42.21
82927;BME280;72788;40.218;44.486;2023-11-21T08:42:47;88077.69;;;11.03;38.54
82927;BME280;72788;40.218;44.486;2023-11-21T08:45:14;88066.78;;;10.53;34.12
82927;BME280;72788;40.218;44.486;2023-11-21T08:47:40;88072.38;;;10.38;35.98
82927;BME280;72788;40.218;44.486;2023-11-21T08:50:06;88052.41;;;10.37;35.85
82927;BME280;72788;40.218;44.486;2023-11-21T08:52:33;88068.31;;;10.34;36.31
82927;BME280;72788;40.218;44.486;2023-11-21T08:54:59;88053.97;;;10.35;35.89
82927;BME280;72788;40.218;44.486;2023-11-21T08:57:28;88057.84;;;10.30;37.90
82927;BME280;72788;40.218;44.486;2023-11-21T08:59:55;88062.28;;;10.33;35.97
82927;BME280;72788;40.218;44.486;2023-11-21T09:02:21;88076.53;;;10.20;35.67
82927;BME280;72788;40.218;44.486;2023-11-21T09:04:50;88069.19;;;10.08;34.62
82927;BME280;72788;40.218;44.486;2023-11-21T09:07:18;88079.91;;;10.01;35.19
82927;BME280;72788;40.218;44.486;2023-11-21T09:09:48;88079.44;;;9.86;35.09
82927;BME280;72788;40.218;44.486;2023-11-21T09:12:15;88066.47;;;9.95;36.66
82927;BME280;72788;40.218;44.486;2023-11-21T09:14:42;88062.47;;;10.07;37.00
82927;BME280;72788;40.218;44.486;2023-11-21T09:17:09;88059.94;;;10.19;38.67
82927;BME280;72788;40.218;44.486;2023-11-21T09:19:40;88051.16;;;10.26;37.64
82927;BME280;72788;40.218;44.486;2023-11-21T09:22:06;88054.38;;;10.33;37.47
82927;BME280;72788;40.218;44.486;2023-11-21T09:24:32;88060.31;;;10.37;36.98
82927;BME280;72788;40.218;44.486;2023-11-21T09:26:58;88061.34;;;10.24;35.60
82927;BME280;72788;40.218;44.486;2023-11-21T09:29:26;88068.22;;;10.02;34.63
82927;BME280;72788;40.218;44.486;2023-11-21T09:31:51;88098.44;;;9.97;35.47
82927;BME280;72788;40.218;44.486;2023-11-21T09:34:17;88074.69;;;9.97;36.31
82927;BME280;72788;40.218;44.486;2023-11-21T09:36:47;88061.19;;;9.95;36.44
82927;BME280;72788;40.218;44.486;2023-11-21T09:39:13;88062.72;;;9.92;35.98
82927;BME280;72788;40.218;44.486;2023-11-21T09:41:46;88058.72;;;10.04;37.14
82927;BME280;72788;40.218;44.486;2023-11-21T09:47:01;88073.09;;;10.23;36.27
82927;BME280;72788;40.218;44.486;2023-11-21T09:49:28;88063.00;;;10.18;35.56
82927;BME280;72788;40.218;44.486;2023-11-21T09:51:58;88084.88;;;10.18;36.61
82927;BME280;72788;40.218;44.486;2023-11-21T09:54:29;88090.16;;;10.18;35.80
82927;BME280;72788;40.218;44.486;2023-11-21T09:56:58;88074.56;;;10.24;37.02
82927;BME280;72788;40.218;44.486;2023-11-21T09:59:28;88097.56;;;10.23;34.08
82927;BME280;72788;40.218;44.486;2023-11-21T10:01:56;88089.78;;;10.16;36.63
82927;BME280;72788;40.218;44.486;2023-11-21T10:04:23;88079.44;;;10.06;34.67
82927;BME280;72788;40.218;44.486;2023-11-21T10:06:50;88085.47;;;10.06;35.37
82927;BME280;72788;40.218;44.486;2023-11-21T10:09:17;88077.34;;;9.97;35.10
82927;BME280;72788;40.218;44.486;2023-11-21T10:11:46;88104.00;;;10.03;36.68
82927;BME280;72788;40.218;44.486;2023-11-21T10:14:12;88090.22;;;10.15;35.16
82927;BME280;72788;40.218;44.486;2023-11-21T10:16:40;88090.88;;;10.19;33.56
82927;BME280;72788;40.218;44.486;2023-11-21T10:19:10;88120.63;;;10.19;34.11
82927;BME280;72788;40.218;44.486;2023-11-21T10:21:39;88120.44;;;10.10;34.15
82927;BME280;72788;40.218;44.486;2023-11-21T10:24:05;88118.44;;;10.18;35.03
82927;BME280;72788;40.218;44.486;2023-11-21T10:26:32;88131.31;;;10.32;34.90
82927;BME280;72788;40.218;44.486;2023-11-21T10:28:58;88112.78;;;10.35;35.09
82927;BME280;72788;40.218;44.486;2023-11-21T10:31:27;88126.41;;;10.34;34.45
82927;BME280;72788;40.218;44.486;2023-11-21T10:33:53;88125.16;;;10.38;34.56
82927;BME280;72788;40.218;44.486;2023-11-21T10:36:28;88126.09;;;10.48;34.55
82927;BME280;72788;40.218;44.486;2023-11-21T10:38:54;88138.66;;;10.60;35.31
82927;BME280;72788;40.218;44.486;2023-11-21T10:41:20;88134.59;;;10.56;35.41
82927;BME280;72788;40.218;44.486;2023-11-21T10:43:47;88163.31;;;10.54;35.25
82927;BME280;72788;40.218;44.486;2023-11-21T10:46:13;88145.78;;;10.43;35.55
82927;BME280;72788;40.218;44.486;2023-11-21T10:48:41;88159.75;;;10.44;34.64
82927;BME280;72788;40.218;44.486;2023-11-21T10:51:08;88147.09;;;10.35;35.42
82927;BME280;72788;40.218;44.486;2023-11-21T10:53:38;88162.59;;;10.33;36.39
82927;BME280;72788;40.218;44.486;2023-11-21T10:56:08;88169.63;;;10.40;36.13
82927;BME280;72788;40.218;44.486;2023-11-21T10:58:43;88165.44;;;10.42;36.05
82927;BME280;72788;40.218;44.486;2023-11-21T11:01:09;88165.44;;;10.42;35.12
82927;BME280;72788;40.218;44.486;2023-11-21T11:03:40;88182.91;;;10.36;35.35
82927;BME280;72788;40.218;44.486;2023-11-21T11:06:07;88192.25;;;10.21;35.09
82927;BME280;72788;40.218;44.486;2023-11-21T11:08:37;88197.88;;;10.00;34.97
82927;BME280;72788;40.218;44.486;2023-11-21T11:11:07;88186.25;;;9.97;35.71
82927;BME280;72788;40.218;44.486;2023-11-21T11:13:33;88202.09;;;9.97;34.63
82927;BME280;72788;40.218;44.486;2023-11-21T11:16:00;88210.34;;;10.00;35.19
82927;BME280;72788;40.218;44.486;2023-11-21T11:18:28;88247.34;;;9.96;34.98
82927;BME280;72788;40.218;44.486;2023-11-21T11:24:05;88213.47;;;9.94;34.45
82927;BME280;72788;40.218;44.486;2023-11-21T11:26:58;88232.78;;;9.88;34.24
82927;BME280;72788;40.218;44.486;2023-11-21T11:29:46;88217.53;;;9.99;34.88
82927;BME280;72788;40.218;44.486;2023-11-21T11:32:24;88225.16;;;10.13;34.29
82927;BME280;72788;40.218;44.486;2023-11-21T11:35:30;88227.25;;;10.25;35.19
82927;BME280;72788;40.218;44.486;2023-11-21T11:37:52;88242.03;;;10.19;34.33
82927;BME280;72788;40.218;44.486;2023-11-21T11:40:20;88248.75;;;10.24;34.52
82927;BME280;72788;40.218;44.486;2023-11-21T11:43:01;88251.00;;;10.25;33.30
82927;BME280;72788;40.218;44.486;2023-11-21T11:45:34;88247.75;;;10.18;34.38
82927;BME280;72788;40.218;44.486;2023-11-21T11:48:01;88240.69;;;10.11;35.01
82927;BME280;72788;40.218;44.486;2023-11-21T11:50:29;88251.22;;;10.11;36.01
82927;BME280;72788;40.218;44.486;2023-11-21T11:52:55;88258.63;;;10.20;35.69
82927;BME280;72788;40.218;44.486;2023-11-21T11:55:36;88276.53;;;10.09;35.57
82927;BME280;72788;40.218;44.486;2023-11-21T11:58:06;88267.22;;;10.01;34.59
82927;BME280;72788;40.218;44.486;2023-11-21T12:03:00;88273.91;;;9.85;35.34
82927;BME280;72788;40.218;44.486;2023-11-21T12:05:31;88270.25;;;9.79;35.21
82927;BME280;72788;40.218;44.486;2023-11-21T12:08:09;88296.06;;;9.65;35.04
82927;BME280;72788;40.218;44.486;2023-11-21T12:10:38;88285.25;;;9.59;35.09
82927;BME280;72788;40.218;44.486;2023-11-21T12:13:09;88301.56;;;9.50;34.34
82927;BME280;72788;40.218;44.486;2023-11-21T12:15:36;88284.69;;;9.48;35.94
82927;BME280;72788;40.218;44.486;2023-11-21T12:18:02;88294.03;;;9.53;36.10
82927;BME280;72788;40.218;44.486;2023-11-21T12:20:29;88333.53;;;9.56;35.58
82927;BME280;72788;40.218;44.486;2023-11-21T12:22:57;88317.75;;;9.53;35.70
82927;BME280;72788;40.218;44.486;2023-11-21T12:25:28;88310.63;;;9.49;35.30
82927;BME280;72788;40.218;44.486;2023-11-21T12:27:58;88328.00;;;9.47;35.87
82927;BME280;72788;40.218;44.486;2023-11-21T12:30:26;88335.84;;;9.50;35.54
82927;BME280;72788;40.218;44.486;2023-11-21T12:32:55;88326.75;;;9.55;36.17
82927;BME280;72788;40.218;44.486;2023-11-21T12:35:27;88342.66;;;9.48;35.35
82927;BME280;72788;40.218;44.486;2023-11-21T12:37:54;88314.50;;;9.41;35.24
82927;BME280;72788;40.218;44.486;2023-11-21T12:40:20;88316.38;;;9.44;35.85
82927;BME280;72788;40.218;44.486;2023-11-21T12:42:50;88315.94;;;9.46;36.98
82927;BME280;72788;40.218;44.486;2023-11-21T12:48:01;88313.09;;;9.33;35.23
82927;BME280;72788;40.218;44.486;2023-11-21T12:50:33;88319.63;;;9.25;36.31
82927;BME280;72788;40.218;44.486;2023-11-21T12:53:10;88321.16;;;9.23;36.38
82927;BME280;72788;40.218;44.486;2023-11-21T12:55:38;88339.66;;;9.19;36.17
82927;BME280;72788;40.218;44.486;2023-11-21T12:58:05;88344.22;;;9.15;36.73
82927;BME280;72788;40.218;44.486;2023-11-21T13:00:35;88352.97;;;9.09;36.84
82927;BME280;72788;40.218;44.486;2023-11-21T13:03:07;88342.78;;;9.11;37.27
82927;BME280;72788;40.218;44.486;2023-11-21T13:05:34;88350.31;;;9.12;37.07
82927;BME280;72788;40.218;44.486;2023-11-21T13:08:02;88353.31;;;9.11;37.08